sensor_id;sensor_type;location;lat;lon;timestamp;pressure;altitude;pressure_sealevel;temperature;humidity
17635;BME280;8936;49.010;12.120;2023-07-13T00:00:19;97709.75;;;26.48;100.00
17635;BME280;8936;49.010;12.120;2023-07-13T00:02:47;97711.91;;;25.83;100.00
17635;BME280;8936;49.010;12.120;2023-07-13T00:05:13;97706.81;;;26.08;100.00
17635;BME280;8936;49.010;12.120;2023-07-13T00:07:40;97703.38;;;26.41;100.00
17635;BME280;8936;49.010;12.120;2023-07-13T00:10:06;97707.16;;;26.62;100.00
17635;BME280;8936;49.010;12.120;2023-07-13T00:12:35;97717.06;;;26.70;100.00
17635;BME280;8936;49.010;12.120;2023-07-13T00:15:05;97713.44;;;26.63;100.00
17635;BME280;8936;49.010;12.120;2023-07-13T00:17:32;97726.22;;;26.81;100.00
17635;BME280;8936;49.010;12.120;2023-07-13T00:19:58;97720.31;;;26.79;100.00
17635;BME280;8936;49.010;12.120;2023-07-13T00:22:25;97728.44;;;26.72;100.00
17635;BME280;8936;49.010;12.120;2023-07-13T00:24:51;97722.34;;;26.83;100.00
17635;BME280;8936;49.010;12.120;2023-07-13T00:27:17;97706.06;;;26.67;100.00
17635;BME280;8936;49.010;12.120;2023-07-13T00:29:45;97710.88;;;26.77;100.00
17635;BME280;8936;49.010;12.120;2023-07-13T00:32:11;97711.94;;;26.69;100.00
17635;BME280;8936;49.010;12.120;2023-07-13T00:34:38;97707.31;;;26.43;100.00
17635;BME280;8936;49.010;12.120;2023-07-13T00:37:04;97716.03;;;26.52;100.00
17635;BME280;8936;49.010;12.120;2023-07-13T00:39:32;97710.59;;;26.56;100.00
17635;BME280;8936;49.010;12.120;2023-07-13T00:41:59;97704.81;;;26.31;100.00
17635;BME280;8936;49.010;12.120;2023-07-13T00:44:25;97707.41;;;26.50;100.00
17635;BME280;8936;49.010;12.120;2023-07-13T00:46:53;97696.16;;;26.59;100.00
17635;BME280;8936;49.010;12.120;2023-07-13T00:49:21;97703.44;;;26.44;100.00
17635;BME280;8936;49.010;12.120;2023-07-13T00:51:49;97713.97;;;26.42;100.00
17635;BME280;8936;49.010;12.120;2023-07-13T00:54:17;97717.53;;;26.46;100.00
17635;BME280;8936;49.010;12.120;2023-07-13T00:56:45;97717.69;;;26.57;100.00
17635;BME280;8936;49.010;12.120;2023-07-13T00:59:13;97723.84;;;26.50;100.00
17635;BME280;8936;49.010;12.120;2023-07-13T01:01:40;97727.88;;;26.60;100.00
17635;BME280;8936;49.010;12.120;2023-07-13T01:04:08;97727.00;;;26.52;100.00
17635;BME280;8936;49.010;12.120;2023-07-13T01:06:34;97715.63;;;26.50;100.00
17635;BME280;8936;49.010;12.120;2023-07-13T01:09:01;97720.19;;;26.39;100.00
17635;BME280;8936;49.010;12.120;2023-07-13T01:11:28;97718.78;;;26.52;100.00
17635;BME280;8936;49.010;12.120;2023-07-13T01:13:54;97718.53;;;26.61;100.00
17635;BME280;8936;49.010;12.120;2023-07-13T01:16:22;97718.41;;;26.54;100.00
17635;BME280;8936;49.010;12.120;2023-07-13T01:18:50;97714.47;;;26.51;100.00
17635;BME280;8936;49.010;12.120;2023-07-13T01:21:18;97715.00;;;26.60;100.00
17635;BME280;8936;49.010;12.120;2023-07-13T01:23:44;97723.72;;;26.69;100.00
17635;BME280;8936;49.010;12.120;2023-07-13T01:26:11;97718.06;;;26.55;100.00
17635;BME280;8936;49.010;12.120;2023-07-13T01:28:38;97708.25;;;26.54;100.00
17635;BME280;8936;49.010;12.120;2023-07-13T01:31:04;97708.63;;;26.53;100.00
17635;BME280;8936;49.010;12.120;2023-07-13T01:33:31;97709.78;;;26.52;100.00
17635;BME280;8936;49.010;12.120;2023-07-13T01:35:57;97712.25;;;26.60;100.00
17635;BME280;8936;49.010;12.120;2023-07-13T01:38:25;97702.81;;;26.58;100.00
17635;BME280;8936;49.010;12.120;2023-07-13T01:40:52;97709.09;;;26.58;100.00
17635;BME280;8936;49.010;12.120;2023-07-13T01:43:18;97704.78;;;26.57;100.00
17635;BME280;8936;49.010;12.120;2023-07-13T01:45:45;97703.28;;;26.63;100.00
17635;BME280;8936;49.010;12.120;2023-07-13T01:48:11;97706.44;;;26.65;100.00
17635;BME280;8936;49.010;12.120;2023-07-13T01:50:37;97695.53;;;26.69;100.00
17635;BME280;8936;49.010;12.120;2023-07-13T01:53:04;97688.34;;;26.57;100.00
17635;BME280;8936;49.010;12.120;2023-07-13T01:55:33;97695.72;;;26.53;100.00
17635;BME280;8936;49.010;12.120;2023-07-13T01:58:00;97694.97;;;26.56;100.00
17635;BME280;8936;49.010;12.120;2023-07-13T02:00:26;97698.16;;;26.58;100.00
17635;BME280;8936;49.010;12.120;2023-07-13T02:02:52;97699.00;;;26.66;100.00
17635;BME280;8936;49.010;12.120;2023-07-13T02:05:19;97698.22;;;26.65;100.00
17635;BME280;8936;49.010;12.120;2023-07-13T02:07:45;97703.44;;;26.44;100.00
17635;BME280;8936;49.010;12.120;2023-07-13T02:10:11;97697.94;;;26.44;100.00
17635;BME280;8936;49.010;12.120;2023-07-13T02:12:40;97694.13;;;26.52;100.00
17635;BME280;8936;49.010;12.120;2023-07-13T02:15:07;97700.88;;;26.58;100.00
17635;BME280;8936;49.010;12.120;2023-07-13T02:17:33;97695.72;;;26.53;100.00
17635;BME280;8936;49.010;12.120;2023-07-13T02:20:00;97695.03;;;26.60;100.00
17635;BME280;8936;49.010;12.120;2023-07-13T02:22:26;97700.34;;;26.49;100.00
17635;BME280;8936;49.010;12.120;2023-07-13T02:24:53;97699.91;;;26.44;100.00
17635;BME280;8936;49.010;12.120;2023-07-13T02:27:19;97700.34;;;26.49;100.00
17635;BME280;8936;49.010;12.120;2023-07-13T02:29:47;97702.81;;;26.58;100.00
17635;BME280;8936;49.010;12.120;2023-07-13T02:32:16;97709.91;;;26.62;100.00
17635;BME280;8936;49.010;12.120;2023-07-13T02:34:42;97707.91;;;26.59;100.00
17635;BME280;8936;49.010;12.120;2023-07-13T02:37:09;97711.41;;;26.56;100.00
17635;BME280;8936;49.010;12.120;2023-07-13T02:39:35;97716.44;;;26.51;100.00
17635;BME280;8936;49.010;12.120;2023-07-13T02:42:01;97727.44;;;26.54;100.00
17635;BME280;8936;49.010;12.120;2023-07-13T02:44:28;97719.22;;;26.54;100.00
17635;BME280;8936;49.010;12.120;2023-07-13T02:46:56;97721.50;;;26.52;100.00
17635;BME280;8936;49.010;12.120;2023-07-13T02:49:22;97720.81;;;26.55;100.00
17635;BME280;8936;49.010;12.120;2023-07-13T02:51:49;97719.22;;;26.54;100.00
17635;BME280;8936;49.010;12.120;2023-07-13T02:54:15;97710.56;;;26.52;100.00
17635;BME280;8936;49.010;12.120;2023-07-13T02:56:41;97712.94;;;26.54;100.00
17635;BME280;8936;49.010;12.120;2023-07-13T02:59:08;97722.19;;;26.42;100.00
17635;BME280;8936;49.010;12.120;2023-07-13T03:01:35;97726.81;;;26.38;100.00
17635;BME280;8936;49.010;12.120;2023-07-13T03:04:03;97725.28;;;26.41;100.00
17635;BME280;8936;49.010;12.120;2023-07-13T03:06:30;97722.25;;;26.46;100.00
17635;BME280;8936;49.010;12.120;2023-07-13T03:08:56;97733.13;;;26.42;100.00
17635;BME280;8936;49.010;12.120;2023-07-13T03:11:23;97741.75;;;26.44;100.00
17635;BME280;8936;49.010;12.120;2023-07-13T03:13:49;97743.31;;;26.42;100.00
17635;BME280;8936;49.010;12.120;2023-07-13T03:16:15;97739.34;;;26.39;100.00
17635;BME280;8936;49.010;12.120;2023-07-13T03:18:42;97738.16;;;26.37;100.00
17635;BME280;8936;49.010;12.120;2023-07-13T03:21:09;97745.88;;;26.31;100.00
17635;BME280;8936;49.010;12.120;2023-07-13T03:23:36;97756.41;;;26.29;100.00
17635;BME280;8936;49.010;12.120;2023-07-13T03:26:04;97754.09;;;26.31;100.00
17635;BME280;8936;49.010;12.120;2023-07-13T03:28:30;97763.09;;;26.32;100.00
17635;BME280;8936;49.010;12.120;2023-07-13T03:31:00;97762.75;;;26.33;100.00
17635;BME280;8936;49.010;12.120;2023-07-13T03:33:27;97767.03;;;26.34;100.00
17635;BME280;8936;49.010;12.120;2023-07-13T03:35:53;97767.72;;;26.27;100.00
17635;BME280;8936;49.010;12.120;2023-07-13T03:38:21;97773.47;;;26.19;100.00
17635;BME280;8936;49.010;12.120;2023-07-13T03:40:47;97772.44;;;26.04;100.00
17635;BME280;8936;49.010;12.120;2023-07-13T03:43:14;97782.47;;;25.97;100.00
17635;BME280;8936;49.010;12.120;2023-07-13T03:45:40;97785.31;;;26.04;100.00
17635;BME280;8936;49.010;12.120;2023-07-13T03:48:07;97779.84;;;26.04;100.00
17635;BME280;8936;49.010;12.120;2023-07-13T03:50:33;97786.25;;;26.11;100.00
17635;BME280;8936;49.010;12.120;2023-07-13T03:52:59;97790.97;;;26.14;100.00
17635;BME280;8936;49.010;12.120;2023-07-13T03:55:27;97782.59;;;26.04;100.00
17635;BME280;8936;49.010;12.120;2023-07-13T03:57:54;97793.19;;;26.05;100.00
17635;BME280;8936;49.010;12.120;2023-07-13T04:00:23;97794.38;;;26.08;100.00
17635;BME280;8936;49.010;12.120;2023-07-13T04:02:50;97788.97;;;26.11;100.00
17635;BME280;8936;49.010;12.120;2023-07-13T04:05:17;97792.00;;;26.06;100.00
17635;BME280;8936;49.010;12.120;2023-07-13T04:07:43;97789.53;;;25.98;100.00
17635;BME280;8936;49.010;12.120;2023-07-13T04:10:10;97795.53;;;26.07;100.00
17635;BME280;8936;49.010;12.120;2023-07-13T04:12:37;97786.59;;;26.10;100.00
17635;BME280;8936;49.010;12.120;2023-07-13T04:15:04;97794.31;;;26.04;100.00
17635;BME280;8936;49.010;12.120;2023-07-13T04:17:31;97794.13;;;25.94;100.00
17635;BME280;8936;49.010;12.120;2023-07-13T04:19:57;97790.72;;;26.00;100.00
17635;BME280;8936;49.010;12.120;2023-07-13T04:22:23;97801.75;;;26.04;100.00
17635;BME280;8936;49.010;12.120;2023-07-13T04:24:50;97788.63;;;25.90;100.00
17635;BME280;8936;49.010;12.120;2023-07-13T04:27:16;97795.06;;;25.78;100.00
17635;BME280;8936;49.010;12.120;2023-07-13T04:29:44;97782.69;;;25.62;100.00
17635;BME280;8936;49.010;12.120;2023-07-13T04:32:10;97783.09;;;25.64;100.00
17635;BME280;8936;49.010;12.120;2023-07-13T04:34:36;97788.38;;;25.76;100.00
17635;BME280;8936;49.010;12.120;2023-07-13T04:37:03;97788.38;;;25.76;100.00
17635;BME280;8936;49.010;12.120;2023-07-13T04:39:29;97785.53;;;25.69;100.00
17635;BME280;8936;49.010;12.120;2023-07-13T04:41:55;97787.53;;;25.72;100.00
17635;BME280;8936;49.010;12.120;2023-07-13T04:44:22;97788.25;;;25.69;100.00
17635;BME280;8936;49.010;12.120;2023-07-13T04:46:49;97791.72;;;25.66;100.00
17635;BME280;8936;49.010;12.120;2023-07-13T04:49:16;97786.06;;;25.36;100.00
17635;BME280;8936;49.010;12.120;2023-07-13T04:51:42;97791.09;;;25.53;100.00
17635;BME280;8936;49.010;12.120;2023-07-13T04:54:08;97796.84;;;25.48;100.00
17635;BME280;8936;49.010;12.120;2023-07-13T04:56:35;97805.34;;;25.62;100.00
17635;BME280;8936;49.010;12.120;2023-07-13T04:59:01;97810.19;;;25.72;100.00
17635;BME280;8936;49.010;12.120;2023-07-13T05:01:28;97814.84;;;25.68;100.00
17635;BME280;8936;49.010;12.120;2023-07-13T05:03:55;97806.56;;;25.65;100.00
17635;BME280;8936;49.010;12.120;2023-07-13T05:06:24;97815.13;;;25.44;100.00
17635;BME280;8936;49.010;12.120;2023-07-13T05:08:50;97822.34;;;25.52;100.00
17635;BME280;8936;49.010;12.120;2023-07-13T05:11:17;97826.06;;;25.63;100.00
17635;BME280;8936;49.010;12.120;2023-07-13T05:13:43;97820.97;;;25.62;100.00
17635;BME280;8936;49.010;12.120;2023-07-13T05:16:10;97822.03;;;25.57;100.00
17635;BME280;8936;49.010;12.120;2023-07-13T05:18:36;97815.56;;;25.65;100.00
17635;BME280;8936;49.010;12.120;2023-07-13T05:21:05;97827.78;;;25.71;100.00
17635;BME280;8936;49.010;12.120;2023-07-13T05:23:33;97831.97;;;25.65;100.00
17635;BME280;8936;49.010;12.120;2023-07-13T05:25:59;97828.66;;;25.56;100.00
17635;BME280;8936;49.010;12.120;2023-07-13T05:28:26;97832.69;;;25.62;100.00
17635;BME280;8936;49.010;12.120;2023-07-13T05:30:53;97838.03;;;25.36;100.00
17635;BME280;8936;49.010;12.120;2023-07-13T05:33:20;97833.19;;;25.30;100.00
17635;BME280;8936;49.010;12.120;2023-07-13T05:35:46;97836.66;;;25.46;100.00
17635;BME280;8936;49.010;12.120;2023-07-13T05:38:14;97840.69;;;25.52;100.00
17635;BME280;8936;49.010;12.120;2023-07-13T05:40:42;97843.19;;;25.41;100.00
17635;BME280;8936;49.010;12.120;2023-07-13T05:43:08;97836.16;;;25.40;99.93
17635;BME280;8936;49.010;12.120;2023-07-13T05:45:34;97851.53;;;25.48;98.37
17635;BME280;8936;49.010;12.120;2023-07-13T05:48:01;97843.66;;;25.62;98.16
17635;BME280;8936;49.010;12.120;2023-07-13T05:50:27;97846.00;;;25.64;96.02
17635;BME280;8936;49.010;12.120;2023-07-13T05:52:53;97850.41;;;25.68;94.05
17635;BME280;8936;49.010;12.120;2023-07-13T05:55:21;97845.66;;;25.65;94.97
17635;BME280;8936;49.010;12.120;2023-07-13T05:57:47;97845.94;;;25.60;93.44
17635;BME280;8936;49.010;12.120;2023-07-13T06:00:14;97858.75;;;25.56;88.03
17635;BME280;8936;49.010;12.120;2023-07-13T06:02:41;97846.00;;;25.45;92.21
17635;BME280;8936;49.010;12.120;2023-07-13T06:05:08;97842.06;;;25.61;92.05
17635;BME280;8936;49.010;12.120;2023-07-13T06:07:34;97858.94;;;25.67;90.88
17635;BME280;8936;49.010;12.120;2023-07-13T06:10:00;97860.22;;;25.73;89.91
17635;BME280;8936;49.010;12.120;2023-07-13T06:12:28;97855.56;;;25.73;88.10
17635;BME280;8936;49.010;12.120;2023-07-13T06:14:54;97864.50;;;25.51;86.18
17635;BME280;8936;49.010;12.120;2023-07-13T06:17:21;97859.41;;;25.50;86.86
17635;BME280;8936;49.010;12.120;2023-07-13T06:19:47;97857.91;;;25.52;84.46
17635;BME280;8936;49.010;12.120;2023-07-13T06:22:13;97860.38;;;25.80;83.09
17635;BME280;8936;49.010;12.120;2023-07-13T06:24:39;97867.34;;;26.00;81.20
17635;BME280;8936;49.010;12.120;2023-07-13T06:27:06;97861.66;;;26.09;78.94
17635;BME280;8936;49.010;12.120;2023-07-13T06:29:34;97859.22;;;26.04;79.12
17635;BME280;8936;49.010;12.120;2023-07-13T06:32:00;97860.94;;;26.12;78.24
17635;BME280;8936;49.010;12.120;2023-07-13T06:34:27;97871.19;;;25.96;78.66
17635;BME280;8936;49.010;12.120;2023-07-13T06:36:53;97872.16;;;26.07;78.64
17635;BME280;8936;49.010;12.120;2023-07-13T06:39:19;97881.03;;;26.00;76.95
17635;BME280;8936;49.010;12.120;2023-07-13T06:41:46;97882.75;;;26.08;77.95
17635;BME280;8936;49.010;12.120;2023-07-13T06:44:12;97878.69;;;26.21;76.52
17635;BME280;8936;49.010;12.120;2023-07-13T06:46:40;97867.97;;;26.13;75.64
17635;BME280;8936;49.010;12.120;2023-07-13T06:49:07;97876.03;;;26.25;75.79
17635;BME280;8936;49.010;12.120;2023-07-13T06:51:34;97867.34;;;26.19;74.12
17635;BME280;8936;49.010;12.120;2023-07-13T06:54:00;97874.81;;;26.45;73.93
17635;BME280;8936;49.010;12.120;2023-07-13T06:56:27;97875.13;;;26.66;72.91
17635;BME280;8936;49.010;12.120;2023-07-13T06:58:53;97870.31;;;26.83;70.19
17635;BME280;8936;49.010;12.120;2023-07-13T07:01:19;97873.91;;;26.90;70.71
17635;BME280;8936;49.010;12.120;2023-07-13T07:03:47;97876.38;;;26.99;69.87
17635;BME280;8936;49.010;12.120;2023-07-13T07:06:15;97876.94;;;27.11;69.09
17635;BME280;8936;49.010;12.120;2023-07-13T07:08:42;97883.72;;;27.21;69.12
17635;BME280;8936;49.010;12.120;2023-07-13T07:11:10;97889.34;;;27.31;68.05
17635;BME280;8936;49.010;12.120;2023-07-13T07:13:36;97877.28;;;27.40;67.11
17635;BME280;8936;49.010;12.120;2023-07-13T07:16:02;97885.91;;;27.38;65.49
17635;BME280;8936;49.010;12.120;2023-07-13T07:18:29;97880.03;;;27.40;65.60
17635;BME280;8936;49.010;12.120;2023-07-13T07:20:56;97883.34;;;27.52;65.06
17635;BME280;8936;49.010;12.120;2023-07-13T07:23:23;97897.66;;;27.68;64.79
17635;BME280;8936;49.010;12.120;2023-07-13T07:25:49;97893.78;;;27.73;64.87
17635;BME280;8936;49.010;12.120;2023-07-13T07:28:16;97897.66;;;27.68;63.96
17635;BME280;8936;49.010;12.120;2023-07-13T07:30:44;97897.25;;;27.66;64.23
17635;BME280;8936;49.010;12.120;2023-07-13T07:33:10;97903.41;;;27.56;64.14
17635;BME280;8936;49.010;12.120;2023-07-13T07:35:37;97905.28;;;27.85;63.18
17635;BME280;8936;49.010;12.120;2023-07-13T07:38:04;97910.47;;;27.94;63.06
17635;BME280;8936;49.010;12.120;2023-07-13T07:40:31;97910.53;;;27.98;61.99
17635;BME280;8936;49.010;12.120;2023-07-13T07:42:58;97907.44;;;28.03;61.31
17635;BME280;8936;49.010;12.120;2023-07-13T07:45:26;97909.78;;;28.04;61.59
17635;BME280;8936;49.010;12.120;2023-07-13T07:47:52;97905.75;;;27.95;61.38
17635;BME280;8936;49.010;12.120;2023-07-13T07:50:20;97906.56;;;27.95;61.08
17635;BME280;8936;49.010;12.120;2023-07-13T07:52:46;97904.16;;;27.90;61.10
17635;BME280;8936;49.010;12.120;2023-07-13T07:55:14;97906.47;;;27.84;59.81
17635;BME280;8936;49.010;12.120;2023-07-13T07:57:40;97914.34;;;27.89;60.08
17635;BME280;8936;49.010;12.120;2023-07-13T08:00:07;97912.69;;;27.81;59.37
17635;BME280;8936;49.010;12.120;2023-07-13T08:02:33;97918.88;;;27.42;58.15
17635;BME280;8936;49.010;12.120;2023-07-13T08:05:00;97927.47;;;27.40;59.72
17635;BME280;8936;49.010;12.120;2023-07-13T08:07:26;97910.28;;;27.43;59.25
17635;BME280;8936;49.010;12.120;2023-07-13T08:09:52;97927.63;;;27.51;60.48
17635;BME280;8936;49.010;12.120;2023-07-13T08:12:20;97913.50;;;27.85;59.78
17635;BME280;8936;49.010;12.120;2023-07-13T08:14:49;97920.56;;;28.20;57.97
17635;BME280;8936;49.010;12.120;2023-07-13T08:17:18;97924.88;;;28.21;57.77
17635;BME280;8936;49.010;12.120;2023-07-13T08:19:44;97921.66;;;28.12;57.25
17635;BME280;8936;49.010;12.120;2023-07-13T08:22:11;97925.53;;;28.07;56.75
17635;BME280;8936;49.010;12.120;2023-07-13T08:24:37;97934.28;;;28.20;57.39
17635;BME280;8936;49.010;12.120;2023-07-13T08:27:03;97942.91;;;28.18;56.95
17635;BME280;8936;49.010;12.120;2023-07-13T08:29:31;97939.44;;;27.88;55.59
17635;BME280;8936;49.010;12.120;2023-07-13T08:31:57;97935.94;;;28.28;55.78
17635;BME280;8936;49.010;12.120;2023-07-13T08:34:24;97934.91;;;28.43;55.27
17635;BME280;8936;49.010;12.120;2023-07-13T08:36:50;97940.88;;;28.52;54.46
17635;BME280;8936;49.010;12.120;2023-07-13T08:39:17;97936.88;;;28.46;54.68
17635;BME280;8936;49.010;12.120;2023-07-13T08:41:43;97945.97;;;28.50;51.94
17635;BME280;8936;49.010;12.120;2023-07-13T08:44:15;97950.81;;;28.23;53.42
17635;BME280;8936;49.010;12.120;2023-07-13T08:46:44;97945.75;;;28.29;52.26
17635;BME280;8936;49.010;12.120;2023-07-13T08:49:13;97957.22;;;28.38;52.57
17635;BME280;8936;49.010;12.120;2023-07-13T08:51:41;97960.72;;;28.35;52.35
17635;BME280;8936;49.010;12.120;2023-07-13T08:54:11;97948.16;;;28.74;51.37
17635;BME280;8936;49.010;12.120;2023-07-13T08:56:38;97939.16;;;28.84;51.32
17635;BME280;8936;49.010;12.120;2023-07-13T08:59:05;97960.53;;;28.58;49.24
17635;BME280;8936;49.010;12.120;2023-07-13T09:01:42;97967.63;;;28.59;52.19
17635;BME280;8936;49.010;12.120;2023-07-13T09:04:14;97968.41;;;28.59;51.24
17635;BME280;8936;49.010;12.120;2023-07-13T09:06:44;97964.44;;;28.57;49.90
17635;BME280;8936;49.010;12.120;2023-07-13T09:09:17;97962.50;;;28.57;50.71
17635;BME280;8936;49.010;12.120;2023-07-13T09:11:47;97962.97;;;28.26;49.56
17635;BME280;8936;49.010;12.120;2023-07-13T09:14:29;97964.94;;;28.66;50.04
17635;BME280;8936;49.010;12.120;2023-07-13T09:16:58;97962.09;;;28.55;49.98
17635;BME280;8936;49.010;12.120;2023-07-13T09:19:28;97959.47;;;28.69;50.27
17635;BME280;8936;49.010;12.120;2023-07-13T09:21:57;97964.00;;;28.51;48.43
17635;BME280;8936;49.010;12.120;2023-07-13T09:24:29;97967.19;;;28.13;48.11
17635;BME280;8936;49.010;12.120;2023-07-13T09:26:59;97968.81;;;28.21;49.72
17635;BME280;8936;49.010;12.120;2023-07-13T09:29:27;97966.44;;;28.60;49.97
17635;BME280;8936;49.010;12.120;2023-07-13T09:31:55;97971.22;;;28.26;49.20
17635;BME280;8936;49.010;12.120;2023-07-13T09:34:23;97976.44;;;28.75;49.92
17635;BME280;8936;49.010;12.120;2023-07-13T09:36:51;97960.75;;;28.82;49.93
17635;BME280;8936;49.010;12.120;2023-07-13T09:39:21;97963.16;;;28.87;49.65
17635;BME280;8936;49.010;12.120;2023-07-13T09:41:51;97970.31;;;28.99;50.04
17635;BME280;8936;49.010;12.120;2023-07-13T09:44:27;97962.84;;;28.96;49.46
17635;BME280;8936;49.010;12.120;2023-07-13T09:46:56;97953.00;;;28.95;49.76
17635;BME280;8936;49.010;12.120;2023-07-13T09:49:23;97956.19;;;29.04;49.25
17635;BME280;8936;49.010;12.120;2023-07-13T10:14:32;97968.94;;;28.75;45.84
17635;BME280;8936;49.010;12.120;2023-07-13T10:16:58;97975.47;;;28.60;46.59
17635;BME280;8936;49.010;12.120;2023-07-13T10:19:27;97975.09;;;29.13;45.60
17635;BME280;8936;49.010;12.120;2023-07-13T10:21:56;97975.59;;;28.71;43.95
17635;BME280;8936;49.010;12.120;2023-07-13T10:24:25;97968.81;;;29.12;46.64
17635;BME280;8936;49.010;12.120;2023-07-13T10:26:53;97966.28;;;29.44;46.22
17635;BME280;8936;49.010;12.120;2023-07-13T10:29:21;97970.59;;;29.41;44.53
17635;BME280;8936;49.010;12.120;2023-07-13T10:31:50;97967.69;;;29.20;45.81
17635;BME280;8936;49.010;12.120;2023-07-13T10:34:16;97964.38;;;29.59;45.17
17635;BME280;8936;49.010;12.120;2023-07-13T10:36:43;97967.16;;;29.62;44.56
17635;BME280;8936;49.010;12.120;2023-07-13T10:39:13;97966.78;;;29.64;44.99
17635;BME280;8936;49.010;12.120;2023-07-13T10:41:41;97964.81;;;29.61;44.99
17635;BME280;8936;49.010;12.120;2023-07-13T10:44:12;97972.63;;;28.97;41.98
17635;BME280;8936;49.010;12.120;2023-07-13T10:46:41;97979.81;;;29.09;44.30
17635;BME280;8936;49.010;12.120;2023-07-13T10:49:10;97963.53;;;28.86;43.36
17635;BME280;8936;49.010;12.120;2023-07-13T10:51:37;97969.84;;;28.86;43.13
17635;BME280;8936;49.010;12.120;2023-07-13T10:54:16;97971.56;;;29.09;44.56
17635;BME280;8936;49.010;12.120;2023-07-13T10:56:43;97980.66;;;29.20;44.70
17635;BME280;8936;49.010;12.120;2023-07-13T10:59:11;97980.00;;;29.33;44.25
17635;BME280;8936;49.010;12.120;2023-07-13T11:01:40;97980.75;;;29.34;44.44
17635;BME280;8936;49.010;12.120;2023-07-13T11:04:08;97969.75;;;29.30;44.59
17635;BME280;8936;49.010;12.120;2023-07-13T11:06:39;97974.69;;;29.07;42.33
17635;BME280;8936;49.010;12.120;2023-07-13T11:11:58;97975.81;;;28.99;43.64
17635;BME280;8936;49.010;12.120;2023-07-13T11:14:26;97969.22;;;29.14;43.16
17635;BME280;8936;49.010;12.120;2023-07-13T11:16:52;97983.81;;;29.22;42.74
17635;BME280;8936;49.010;12.120;2023-07-13T11:19:38;97978.13;;;28.93;43.13
17635;BME280;8936;49.010;12.120;2023-07-13T11:22:15;97969.13;;;28.53;40.93
17635;BME280;8936;49.010;12.120;2023-07-13T11:24:49;97966.19;;;28.75;42.82
17635;BME280;8936;49.010;12.120;2023-07-13T11:27:21;97962.97;;;28.66;40.12
17635;BME280;8936;49.010;12.120;2023-07-13T11:29:48;97965.72;;;28.22;42.04
17635;BME280;8936;49.010;12.120;2023-07-13T11:32:22;97968.47;;;28.66;43.52
17635;BME280;8936;49.010;12.120;2023-07-13T11:34:48;97967.91;;;28.94;42.67
17635;BME280;8936;49.010;12.120;2023-07-13T11:37:16;97963.88;;;28.77;40.78
17635;BME280;8936;49.010;12.120;2023-07-13T11:39:44;97970.72;;;28.57;42.12
17635;BME280;8936;49.010;12.120;2023-07-13T11:42:13;97974.03;;;28.73;40.99
17635;BME280;8936;49.010;12.120;2023-07-13T11:44:42;97952.91;;;28.84;42.26
17635;BME280;8936;49.010;12.120;2023-07-13T11:47:10;97957.50;;;28.66;39.79
17635;BME280;8936;49.010;12.120;2023-07-13T11:49:40;97957.13;;;28.68;41.96
17635;BME280;8936;49.010;12.120;2023-07-13T11:52:09;97965.44;;;28.75;40.77
17635;BME280;8936;49.010;12.120;2023-07-13T11:54:43;97972.63;;;28.93;42.48
17635;BME280;8936;49.010;12.120;2023-07-13T11:57:18;97956.25;;;28.64;42.01
17635;BME280;8936;49.010;12.120;2023-07-13T11:59:48;97950.59;;;28.86;42.10
17635;BME280;8936;49.010;12.120;2023-07-13T12:02:16;97960.84;;;28.93;41.52
17635;BME280;8936;49.010;12.120;2023-07-13T12:04:44;97964.00;;;28.95;41.85
17635;BME280;8936;49.010;12.120;2023-07-13T12:07:14;97955.06;;;28.61;39.91
17635;BME280;8936;49.010;12.120;2023-07-13T12:09:43;97952.72;;;28.63;39.18
17635;BME280;8936;49.010;12.120;2023-07-13T12:12:10;97943.16;;;28.43;39.87
17635;BME280;8936;49.010;12.120;2023-07-13T12:14:37;97954.41;;;28.31;41.30
17635;BME280;8936;49.010;12.120;2023-07-13T12:17:05;97951.56;;;28.64;42.01
17635;BME280;8936;49.010;12.120;2023-07-13T12:19:34;97952.22;;;28.94;42.25
17635;BME280;8936;49.010;12.120;2023-07-13T12:22:01;97937.31;;;28.99;41.98
17635;BME280;8936;49.010;12.120;2023-07-13T12:24:28;97949.13;;;29.03;40.39
17635;BME280;8936;49.010;12.120;2023-07-13T12:26:59;97952.22;;;28.98;41.73
17635;BME280;8936;49.010;12.120;2023-07-13T12:29:26;97942.09;;;29.13;41.30
17635;BME280;8936;49.010;12.120;2023-07-13T12:31:53;97949.25;;;29.21;41.88
17635;BME280;8936;49.010;12.120;2023-07-13T12:34:22;97936.31;;;29.25;40.83
17635;BME280;8936;49.010;12.120;2023-07-13T12:36:50;97927.97;;;29.14;41.53
17635;BME280;8936;49.010;12.120;2023-07-13T12:39:18;97924.84;;;29.19;41.39
17635;BME280;8936;49.010;12.120;2023-07-13T12:41:45;97941.00;;;29.21;41.44
17635;BME280;8936;49.010;12.120;2023-07-13T12:44:13;97939.69;;;29.04;40.62
17635;BME280;8936;49.010;12.120;2023-07-13T12:46:50;97936.81;;;28.83;40.56
17635;BME280;8936;49.010;12.120;2023-07-13T12:49:18;97930.88;;;28.77;40.70
17635;BME280;8936;49.010;12.120;2023-07-13T12:51:49;97932.13;;;28.83;40.62
17635;BME280;8936;49.010;12.120;2023-07-13T12:54:19;97923.91;;;28.90;41.40
17635;BME280;8936;49.010;12.120;2023-07-13T12:56:48;97927.56;;;29.09;40.80
17635;BME280;8936;49.010;12.120;2023-07-13T12:59:19;97923.22;;;29.08;40.80
17635;BME280;8936;49.010;12.120;2023-07-13T13:01:46;97901.31;;;29.18;40.45
17635;BME280;8936;49.010;12.120;2023-07-13T13:04:14;97897.78;;;29.21;40.36
17635;BME280;8936;49.010;12.120;2023-07-13T13:06:41;97908.91;;;28.77;39.55
17635;BME280;8936;49.010;12.120;2023-07-13T13:09:09;97903.50;;;28.95;40.43
17635;BME280;8936;49.010;12.120;2023-07-13T13:11:38;97898.25;;;28.72;38.93
17635;BME280;8936;49.010;12.120;2023-07-13T13:14:05;97896.31;;;28.76;39.43
17635;BME280;8936;49.010;12.120;2023-07-13T13:16:33;97894.97;;;28.56;38.33
17635;BME280;8936;49.010;12.120;2023-07-13T13:19:02;97894.41;;;28.87;40.29
17635;BME280;8936;49.010;12.120;2023-07-13T13:21:30;97905.13;;;29.07;39.57